Time;durP1;ratioP1;P1;durP2;ratioP2;P2;SDS_P1;SDS_P2;PMS_P1;PMS_P2;Temp;Humidity;BMP_temperature;BMP_pressure;BME280_temperature;BME280_humidity;BME280_pressure;Samples;Min_cycle;Max_cycle;Signal;HPM_P1;HPM_P2
2024/04/19 00:02:35;;;;;;;2.43;2.27;;;3.40;99.90;;;;;;6813192;26;20862;-60
2024/04/19 00:05:41;;;;;;;3.00;2.40;;;3.30;99.90;;;;;;6859355;26;20557;-60
2024/04/19 00:09:11;;;;;;;3.37;2.80;;;3.30;99.90;;;;;;6843222;26;20472;-61
2024/04/19 00:12:14;;;;;;;2.97;2.60;;;3.30;99.90;;;;;;6841723;26;20864;-61
2024/04/19 00:15:42;;;;;;;2.67;2.47;;;3.20;99.90;;;;;;6858588;26;20479;-61
2024/04/19 00:18:57;;;;;;;3.00;2.70;;;3.10;99.90;;;;;;6863489;26;20908;-61
2024/04/19 00:22:04;;;;;;;2.43;2.10;;;3.10;99.90;;;;;;6858852;26;20451;-60
2024/04/19 00:25:19;;;;;;;2.87;2.50;;;3.10;99.90;;;;;;6858088;26;20478;-60
2024/04/19 00:28:25;;;;;;;2.93;2.70;;;3.00;99.90;;;;;;6852426;26;20836;-61
2024/04/19 00:31:37;;;;;;;2.50;2.20;;;3.00;99.90;;;;;;6857477;26;20475;-60
2024/04/19 00:34:46;;;;;;;2.80;2.10;;;2.90;99.90;;;;;;6812128;26;20480;-61
2024/04/19 00:38:00;;;;;;;3.30;3.00;;;2.90;99.90;;;;;;6808668;26;20476;-61
2024/04/19 00:41:08;;;;;;;2.93;2.60;;;2.90;99.90;;;;;;6811767;26;21212;-62
2024/04/19 00:44:16;;;;;;;2.47;2.30;;;2.80;99.90;;;;;;6812886;26;20579;-61
2024/04/19 00:47:40;;;;;;;2.30;2.20;;;2.70;99.90;;;;;;6850424;26;20459;-61
2024/04/19 00:50:47;;;;;;;2.30;2.17;;;2.80;99.90;;;;;;6857579;26;20462;-60
2024/04/19 00:53:54;;;;;;;2.40;2.30;;;2.70;99.90;;;;;;6856444;26;20568;-61
2024/04/19 00:57:04;;;;;;;4.70;3.00;;;2.70;99.90;;;;;;6828785;26;20470;-60
2024/04/19 01:00:18;;;;;;;2.47;2.37;;;2.70;99.90;;;;;;6856889;26;20545;-61
2024/04/19 01:03:25;;;;;;;2.60;2.40;;;2.70;99.90;;;;;;6858653;26;20462;-59
2024/04/19 01:06:42;;;;;;;2.37;2.23;;;2.70;99.90;;;;;;6856174;26;20474;-61
2024/04/19 01:09:51;;;;;;;3.30;2.60;;;2.70;99.90;;;;;;6811892;26;20586;-60
2024/04/19 01:12:56;;;;;;;2.83;2.63;;;2.70;99.90;;;;;;6812898;26;20464;-61
2024/04/19 01:16:04;;;;;;;2.90;2.70;;;2.60;99.90;;;;;;6814220;26;20471;-61
2024/04/19 01:19:16;;;;;;;2.40;2.17;;;2.70;99.90;;;;;;6812268;26;20483;-60
2024/04/19 01:22:21;;;;;;;2.43;2.23;;;2.50;99.90;;;;;;6825840;26;20466;-60
2024/04/19 01:25:42;;;;;;;2.80;2.30;;;2.60;99.90;;;;;;6856286;26;20470;-61
2024/04/19 01:28:50;;;;;;;4.37;2.90;;;2.60;99.90;;;;;;6856323;26;20463;-60
2024/04/19 01:31:58;;;;;;;3.13;2.87;;;2.60;99.90;;;;;;6855649;26;20462;-60
2024/04/19 01:35:05;;;;;;;2.83;2.40;;;2.50;99.90;;;;;;6856516;26;20809;-61
2024/04/19 01:38:07;;;;;;;3.30;3.10;;;2.50;99.90;;;;;;6855858;26;20580;-61
2024/04/19 01:41:12;;;;;;;2.73;2.53;;;2.60;99.90;;;;;;6856088;26;20504;-60
2024/04/19 01:44:20;;;;;;;3.17;2.47;;;2.60;99.90;;;;;;6855525;26;20503;-61
2024/04/19 01:47:22;;;;;;;2.57;2.37;;;2.60;99.90;;;;;;6856167;26;20510;-61
2024/04/19 01:50:27;;;;;;;2.60;2.40;;;2.60;99.90;;;;;;6856021;26;20458;-59
2024/04/19 01:53:30;;;;;;;2.27;2.17;;;2.60;99.90;;;;;;6856181;26;20565;-61
2024/04/19 01:56:34;;;;;;;2.57;2.37;;;2.70;99.90;;;;;;6857880;26;20760;-61
2024/04/19 01:59:39;;;;;;;2.90;2.70;;;2.70;99.90;;;;;;6860355;26;20454;-61
2024/04/19 02:02:44;;;;;;;2.67;2.47;;;2.60;99.90;;;;;;6825513;26;20464;-60
2024/04/19 02:05:47;;;;;;;2.60;2.40;;;2.50;99.90;;;;;;6859849;26;20531;-61
2024/04/19 02:08:52;;;;;;;2.30;2.10;;;2.60;99.90;;;;;;6860530;26;20783;-62
2024/04/19 02:12:06;;;;;;;1.97;1.87;;;2.60;99.90;;;;;;6858994;26;20619;-63
2024/04/19 02:15:31;;;;;;;2.50;2.30;;;2.70;99.90;;;;;;6859814;26;20462;-63
2024/04/19 02:18:36;;;;;;;2.60;2.40;;;2.70;99.90;;;;;;6860173;26;20494;-63
2024/04/19 02:21:44;;;;;;;2.40;2.20;;;2.70;99.90;;;;;;6860006;26;20518;-63
2024/04/19 02:24:59;;;;;;;2.43;2.23;;;2.70;99.90;;;;;;6860544;26;20987;-62
2024/04/19 02:31:47;;;;;;;2.50;2.00;;;2.80;99.90;;;;;;6815811;26;21077;-62
2024/04/19 02:34:53;;;;;;;2.33;2.23;;;2.90;99.90;;;;;;6858979;26;20475;-63
2024/04/19 02:38:01;;;;;;;2.53;2.33;;;2.80;99.90;;;;;;6833482;26;20455;-62
2024/04/19 02:41:08;;;;;;;5.53;4.70;;;2.70;99.90;;;;;;6850180;26;20538;-62
2024/04/19 02:44:16;;;;;;;3.93;2.67;;;2.70;99.90;;;;;;6811495;26;21126;-62
2024/04/19 02:47:29;;;;;;;3.17;2.60;;;2.70;99.90;;;;;;6831009;26;20478;-63
2024/04/19 02:50:47;;;;;;;2.43;2.33;;;2.60;99.90;;;;;;6864943;26;20466;-61
2024/04/19 02:57:13;;;;;;;2.03;1.83;;;2.60;99.90;;;;;;6858907;26;21135;-62
2024/04/19 03:00:27;;;;;;;2.07;1.97;;;2.60;99.90;;;;;;6859525;26;20478;-63
2024/04/19 03:03:51;;;;;;;2.60;2.40;;;2.60;99.90;;;;;;6859135;26;20442;-63
2024/04/19 03:07:08;;;;;;;2.50;2.30;;;2.50;99.90;;;;;;6811449;26;20520;-63
2024/04/19 03:10:14;;;;;;;2.70;2.50;;;2.60;99.90;;;;;;6783460;26;20524;-62
2024/04/19 03:13:28;;;;;;;2.90;2.50;;;2.60;99.90;;;;;;6812665;26;20474;-63
2024/04/19 03:16:35;;;;;;;2.93;2.60;;;2.60;99.90;;;;;;6813998;26;20785;-62
2024/04/19 03:20:02;;;;;;;2.40;2.20;;;2.70;99.90;;;;;;6813718;26;20452;-62
2024/04/19 03:23:17;;;;;;;2.50;2.30;;;2.70;99.90;;;;;;6842841;25;20647;-63
2024/04/19 03:26:29;;;;;;;2.87;2.67;;;2.80;99.90;;;;;;6858316;26;20478;-62
2024/04/19 03:29:39;;;;;;;4.00;2.77;;;2.80;99.90;;;;;;6858469;26;20523;-64
2024/04/19 03:32:47;;;;;;;3.87;3.40;;;2.80;99.90;;;;;;6858075;26;20466;-63
2024/04/19 03:36:11;;;;;;;3.10;2.90;;;2.80;99.90;;;;;;6858252;26;20470;-63
2024/04/19 03:39:23;;;;;;;7.00;5.40;;;2.80;99.90;;;;;;6858514;26;20462;-63
2024/04/19 03:42:33;;;;;;;4.93;4.17;;;2.80;99.90;;;;;;6826005;26;20512;-62
2024/04/19 03:45:41;;;;;;;4.97;4.50;;;2.90;99.90;;;;;;6813487;26;20499;-63
2024/04/19 03:48:48;;;;;;;3.87;3.53;;;2.90;99.90;;;;;;6787314;26;20575;-63
2024/04/19 03:52:11;;;;;;;3.50;3.20;;;2.90;99.90;;;;;;6801852;26;20670;-62
2024/04/19 03:55:24;;;;;;;3.60;3.10;;;2.80;99.90;;;;;;6815755;26;20970;-62
2024/04/19 03:58:36;;;;;;;3.70;3.20;;;2.90;99.90;;;;;;6813140;26;20957;-62
2024/04/19 04:01:46;;;;;;;3.70;3.33;;;2.90;99.90;;;;;;6813094;26;20512;-64
2024/04/19 04:05:01;;;;;;;3.10;2.90;;;3.00;99.90;;;;;;6813256;26;20464;-63
2024/04/19 04:08:23;;;;;;;3.93;2.90;;;3.10;99.90;;;;;;6812926;26;20468;-63
2024/04/19 04:11:38;;;;;;;3.57;2.47;;;3.10;99.90;;;;;;6812100;26;20661;-62
2024/04/19 04:14:51;;;;;;;3.00;2.80;;;3.20;99.90;;;;;;6812681;26;20475;-63
2024/04/19 04:18:01;;;;;;;2.90;2.70;;;3.30;99.90;;;;;;6833336;26;20515;-63
2024/04/19 04:21:10;;;;;;;5.30;2.50;;;3.50;99.90;;;;;;6858131;26;20768;-63
2024/04/19 04:24:31;;;;;;;2.47;2.37;;;4.10;99.90;;;;;;6853557;26;20653;-62
2024/04/19 04:27:43;;;;;;;3.80;2.30;;;5.00;99.90;;;;;;6857400;26;20455;-63
2024/04/19 04:30:58;;;;;;;3.80;2.60;;;5.90;99.90;;;;;;6857087;26;20530;-62
2024/04/19 04:34:05;;;;;;;4.47;2.90;;;6.80;99.90;;;;;;6857278;26;20884;-62
2024/04/19 04:40:44;;;;;;;4.60;2.40;;;8.60;96.20;;;;;;6857653;26;20627;-62
2024/04/19 04:43:51;;;;;;;3.50;1.90;;;8.80;93.50;;;;;;6814075;26;21095;-64
2024/04/19 04:47:05;;;;;;;4.70;2.30;;;8.90;92.20;;;;;;6810927;26;20517;-63
2024/04/19 04:50:13;;;;;;;2.63;2.43;;;9.40;90.40;;;;;;6826563;26;20471;-62
2024/04/19 04:53:20;;;;;;;12.00;2.57;;;10.40;82.50;;;;;;6847021;26;21059;-64
2024/04/19 04:56:43;;;;;;;2.87;2.60;;;11.30;77.60;;;;;;6839123;26;20459;-63
2024/04/19 04:59:56;;;;;;;3.43;2.70;;;11.50;73.90;;;;;;6856344;26;20599;-63
2024/04/19 05:03:18;;;;;;;5.07;3.20;;;11.60;72.60;;;;;;6856075;26;20447;-63
2024/04/19 05:06:25;;;;;;;2.60;2.40;;;11.80;71.70;;;;;;6854872;26;20553;-62
2024/04/19 05:09:37;;;;;;;3.93;3.03;;;12.00;67.60;;;;;;6855980;26;20526;-64
2024/04/19 05:12:50;;;;;;;2.50;2.30;;;12.70;66.50;;;;;;6853914;26;20526;-64
2024/04/19 05:16:06;;;;;;;8.30;2.80;;;13.30;63.60;;;;;;6809968;26;20611;-63
2024/04/19 05:19:13;;;;;;;2.57;2.37;;;13.40;60.80;;;;;;6836008;26;20490;-63
2024/04/19 05:22:21;;;;;;;3.67;2.67;;;13.50;60.00;;;;;;6855617;26;20447;-63
2024/04/19 05:25:28;;;;;;;3.70;3.10;;;13.50;60.20;;;;;;6855468;26;20475;-63
2024/04/19 05:28:50;;;;;;;3.03;2.67;;;14.10;59.10;;;;;;6852297;26;21140;-63
2024/04/19 05:32:04;;;;;;;4.00;2.77;;;14.40;55.90;;;;;;6855912;26;20474;-63
2024/04/19 05:35:12;;;;;;;3.20;2.90;;;14.50;55.60;;;;;;6859691;26;20470;-63
2024/04/19 05:38:17;;;;;;;5.87;3.30;;;14.70;54.50;;;;;;6860135;26;20447;-63
2024/04/19 05:41:23;;;;;;;4.80;4.23;;;13.60;55.60;;;;;;6859165;26;20638;-63
2024/04/19 05:44:31;;;;;;;3.53;3.10;;;14.50;55.50;;;;;;6859363;26;20522;-63
2024/04/19 05:47:36;;;;;;;3.80;3.20;;;15.40;54.00;;;;;;6847879;26;20521;-64
2024/04/19 05:50:41;;;;;;;4.83;3.13;;;15.90;52.20;;;;;;6859971;26;20567;-64
2024/04/19 05:53:46;;;;;;;8.67;6.13;;;17.20;50.70;;;;;;6860323;26;20454;-63
2024/04/19 05:56:51;;;;;;;4.60;3.10;;;18.10;47.70;;;;;;6858985;26;20505;-63
2024/04/19 05:59:59;;;;;;;4.67;3.30;;;18.10;46.00;;;;;;6859142;26;20268;-62
2024/04/19 06:03:08;;;;;;;8.90;3.30;;;17.70;44.90;;;;;;6850168;26;20542;-63
2024/04/19 06:06:18;;;;;;;4.17;3.50;;;16.90;46.20;;;;;;6853602;26;20513;-62
2024/04/19 06:09:25;;;;;;;7.47;4.63;;;16.20;47.70;;;;;;6842610;26;20527;-63
2024/04/19 06:12:32;;;;;;;4.23;3.83;;;16.20;47.10;;;;;;6813060;26;20554;-62
2024/04/19 06:15:46;;;;;;;6.90;4.17;;;16.30;46.60;;;;;;6813712;26;20524;-62
2024/04/19 06:18:53;;;;;;;8.73;6.47;;;16.20;48.00;;;;;;6809875;26;20515;-64
2024/04/19 06:22:23;;;;;;;5.63;4.47;;;16.70;46.50;;;;;;6839592;26;20463;-63
2024/04/19 06:25:29;;;;;;;7.43;4.00;;;16.50;46.80;;;;;;6858246;26;20574;-63
2024/04/19 06:28:40;;;;;;;7.07;3.20;;;17.20;46.70;;;;;;6859298;26;21173;-63
2024/04/19 06:32:06;;;;;;;8.83;3.83;;;18.10;44.00;;;;;;6859352;26;20446;-62
2024/04/19 06:35:16;;;;;;;5.07;3.80;;;19.30;43.00;;;;;;6859844;26;20238;-63
2024/04/19 06:38:23;;;;;;;6.50;4.73;;;20.90;41.20;;;;;;6858539;26;20272;-64
2024/04/19 06:41:36;;;;;;;11.13;4.20;;;22.60;36.90;;;;;;6859331;26;20230;-64
2024/04/19 06:44:49;;;;;;;5.97;3.33;;;24.10;33.20;;;;;;6858704;26;20515;-63
2024/04/19 06:48:15;;;;;;;7.33;3.77;;;26.20;30.00;;;;;;6858682;26;20400;-64
2024/04/19 06:51:24;;;;;;;5.80;4.30;;;28.20;26.80;;;;;;6821598;26;20947;-65
2024/04/19 06:54:33;;;;;;;7.10;4.10;;;28.60;25.50;;;;;;6813110;26;20309;-64
2024/04/19 06:57:43;;;;;;;9.33;4.63;;;29.10;24.40;;;;;;6823406;26;20270;-64
2024/04/19 07:00:57;;;;;;;5.20;4.68;;;31.10;23.40;;;;;;6858120;26;20221;-63
2024/04/19 07:04:28;;;;;;;8.65;3.63;;;32.70;20.80;;;;;;6818004;26;20238;-65
2024/04/19 07:10:54;;;;;;;5.60;3.53;;;31.80;18.80;;;;;;6858749;26;20858;-64
2024/04/19 07:14:08;;;;;;;11.52;3.83;;;31.60;19.20;;;;;;6846748;26;20233;-63
2024/04/19 07:17:15;;;;;;;4.45;4.05;;;30.80;19.60;;;;;;6810648;26;20501;-63
2024/04/19 07:20:37;;;;;;;4.45;4.05;;;30.40;20.10;;;;;;6838465;26;20587;-64
2024/04/19 07:23:51;;;;;;;4.40;4.00;;;29.50;21.10;;;;;;6841806;26;20271;-63
2024/04/19 07:27:09;;;;;;;7.82;5.53;;;29.00;21.90;;;;;;6838219;26;20241;-64
2024/04/19 07:30:17;;;;;;;3.83;3.53;;;30.60;20.30;;;;;;6830159;26;20299;-65
2024/04/19 07:33:31;;;;;;;6.80;3.90;;;30.30;20.50;;;;;;6835455;26;20233;-64
2024/04/19 07:36:54;;;;;;;4.57;3.37;;;28.00;20.90;;;;;;6839756;26;20361;-63
2024/04/19 07:40:01;;;;;;;3.40;3.10;;;27.70;22.10;;;;;;6825762;25;20290;-64
2024/04/19 07:43:12;;;;;;;4.93;3.60;;;25.30;22.80;;;;;;6856543;25;20245;-63
2024/04/19 07:46:20;;;;;;;4.07;3.50;;;25.20;22.80;;;;;;6849084;26;20237;-62
2024/04/19 07:49:35;;;;;;;3.80;3.50;;;23.80;23.00;;;;;;6856476;26;20276;-64
2024/04/19 07:53:00;;;;;;;3.40;2.80;;;22.40;24.60;;;;;;6856035;26;20226;-63
2024/04/19 07:56:16;;;;;;;4.23;2.50;;;22.70;24.60;;;;;;6855740;26;20243;-63
2024/04/19 07:59:30;;;;;;;3.20;1.90;;;19.90;26.50;;;;;;6817386;26;20231;-63
2024/04/19 08:02:39;;;;;;;2.70;1.87;;;19.90;26.80;;;;;;6825860;26;20735;-66
2024/04/19 08:05:46;;;;;;;9.30;2.40;;;22.60;24.10;;;;;;6830652;26;20294;-63
2024/04/19 08:09:07;;;;;;;1.90;1.80;;;24.10;22.50;;;;;;6829873;26;20460;-62
2024/04/19 08:12:22;;;;;;;2.07;1.77;;;22.30;23.50;;;;;;6822567;26;20227;-63
2024/04/19 08:15:32;;;;;;;2.90;2.17;;;22.50;23.10;;;;;;6816187;26;20625;-63
2024/04/19 08:18:38;;;;;;;2.17;2.00;;;23.50;22.50;;;;;;6856380;26;20230;-62
2024/04/19 08:21:48;;;;;;;2.47;1.40;;;24.60;22.40;;;;;;6847583;26;20873;-61
2024/04/19 08:25:04;;;;;;;4.50;1.77;;;25.00;21.50;;;;;;6852956;26;20301;-62
2024/04/19 08:28:18;;;;;;;1.90;1.20;;;26.50;19.90;;;;;;6857234;26;20237;-62
2024/04/19 08:31:25;;;;;;;1.97;1.37;;;28.30;20.40;;;;;;6857356;26;20275;-64
2024/04/19 08:38:00;;;;;;;1.70;1.60;;;26.70;18.60;;;;;;6838029;26;20230;-62
2024/04/19 08:41:33;;;;;;;2.83;2.00;;;25.90;19.70;;;;;;6854099;26;20568;-66
2024/04/19 08:44:46;;;;;;;2.17;1.70;;;26.20;19.80;;;;;;6852646;26;20833;-65
2024/04/19 08:47:56;;;;;;;1.80;1.53;;;26.00;19.30;;;;;;6854293;26;20303;-66
2024/04/19 08:51:13;;;;;;;1.80;1.70;;;26.00;19.50;;;;;;6851389;26;20682;-65
2024/04/19 08:54:40;;;;;;;2.37;1.90;;;26.30;19.00;;;;;;6812387;26;20763;-64
2024/04/19 08:58:08;;;;;;;7.37;6.70;;;25.90;19.00;;;;;;6824723;26;20245;-66
2024/04/19 09:01:17;;;;;;;1.73;1.63;;;25.10;19.00;;;;;;6813029;26;20222;-63
2024/04/19 09:04:25;;;;;;;3.10;1.43;;;24.50;19.20;;;;;;6844191;26;20225;-64
2024/04/19 09:07:43;;;;;;;1.40;1.30;;;24.00;20.10;;;;;;6849618;26;20521;-65
2024/04/19 09:10:53;;;;;;;1.57;1.10;;;23.80;19.90;;;;;;6856403;26;20226;-65
2024/04/19 09:14:14;;;;;;;1.10;1.00;;;23.90;19.30;;;;;;6856872;26;20718;-64
2024/04/19 09:17:32;;;;;;;3.53;3.10;;;23.50;19.40;;;;;;6858379;26;20218;-63
2024/04/19 09:20:46;;;;;;;1.10;1.00;;;23.50;19.60;;;;;;6831244;26;20281;-66
2024/04/19 09:23:59;;;;;;;1.63;1.20;;;23.70;19.40;;;;;;6812350;26;20238;-63
2024/04/19 09:27:10;;;;;;;2.07;1.80;;;23.50;19.50;;;;;;6820334;26;20453;-63
2024/04/19 09:30:28;;;;;;;4.00;1.50;;;23.80;19.60;;;;;;6859732;26;20260;-64
2024/04/19 09:33:41;;;;;;;6.17;3.07;;;25.00;19.10;;;;;;6810098;26;20244;-61
2024/04/19 09:36:51;;;;;;;1.00;0.80;;;25.80;18.10;;;;;;6856950;26;20242;-60
2024/04/19 09:40:03;;;;;;;1.13;1.03;;;25.70;17.00;;;;;;6856649;26;20263;-61
2024/04/19 09:43:20;;;;;;;2.33;1.23;;;26.90;17.20;;;;;;6856495;26;20742;-60
2024/04/19 09:46:53;;;;;;;2.53;1.40;;;28.30;17.10;;;;;;6857097;26;20233;-62
2024/04/19 09:50:04;;;;;;;1.30;1.05;;;32.00;15.10;;;;;;6856816;26;20360;-62
2024/04/19 09:53:23;;;;;;;1.30;1.05;;;34.10;13.20;;;;;;6794543;26;20322;-64
2024/04/19 09:56:53;;;;;;;1.08;0.98;;;33.10;13.50;;;;;;6855123;26;20614;-61
2024/04/19 10:00:02;;;;;;;1.33;0.98;;;33.20;13.50;;;;;;6856393;26;20229;-60
2024/04/19 10:03:21;;;;;;;1.60;1.20;;;32.50;12.70;;;;;;6892589;25;20768;-61
2024/04/19 10:06:35;;;;;;;1.08;0.98;;;32.30;13.60;;;;;;6902777;25;20252;-61
2024/04/19 10:09:51;;;;;;;3.50;3.20;;;32.10;12.50;;;;;;6861139;25;20667;-62
2024/04/19 10:12:58;;;;;;;1.23;1.13;;;29.90;13.60;;;;;;6809158;26;20370;-62
2024/04/19 10:16:14;;;;;;;1.13;0.90;;;25.30;16.70;;;;;;6810648;26;20310;-63
2024/04/19 10:19:31;;;;;;;1.40;1.00;;;24.00;17.70;;;;;;6815005;26;20238;-61
2024/04/19 10:22:59;;;;;;;1.00;0.87;;;23.30;18.10;;;;;;6815255;26;20777;-62
2024/04/19 10:26:06;;;;;;;1.10;0.90;;;22.20;19.10;;;;;;6814803;26;20297;-61
2024/04/19 10:29:18;;;;;;;1.77;0.90;;;21.30;19.60;;;;;;6871024;25;20264;-62
2024/04/19 10:32:34;;;;;;;1.00;0.90;;;21.40;20.00;;;;;;6861322;26;20222;-62
2024/04/19 10:35:58;;;;;;;2.50;1.00;;;20.10;21.60;;;;;;6849212;26;20363;-62
2024/04/19 10:39:04;;;;;;;1.10;1.00;;;22.10;20.90;;;;;;6851292;26;20238;-62
2024/04/19 10:42:23;;;;;;;4.13;1.03;;;22.90;19.50;;;;;;6837789;26;20691;-62
2024/04/19 10:45:31;;;;;;;0.97;0.87;;;21.50;19.70;;;;;;6815040;26;20239;-61
2024/04/19 10:48:41;;;;;;;1.27;1.17;;;21.00;20.80;;;;;;6814861;26;20917;-61
2024/04/19 10:52:05;;;;;;;1.23;0.77;;;22.10;20.40;;;;;;6843479;26;20439;-62
2024/04/19 10:55:16;;;;;;;1.37;1.10;;;22.30;20.20;;;;;;6836572;26;20241;-62
2024/04/19 10:58:23;;;;;;;1.20;0.80;;;22.80;20.00;;;;;;6847862;26;20234;-62
2024/04/19 11:01:31;;;;;;;0.97;0.77;;;23.80;19.70;;;;;;6859237;26;20801;-62
2024/04/19 11:04:39;;;;;;;1.73;1.10;;;26.30;19.40;;;;;;6855623;26;20280;-62
2024/04/19 11:08:06;;;;;;;1.10;0.80;;;30.20;15.60;;;;;;6859134;26;20281;-62
2024/04/19 11:11:15;;;;;;;1.10;0.85;;;30.50;14.10;;;;;;6833516;26;20346;-62
2024/04/19 11:14:28;;;;;;;2.50;1.45;;;31.80;13.30;;;;;;6833195;26;20234;-62
2024/04/19 11:17:39;;;;;;;1.08;0.85;;;32.30;13.30;;;;;;6827134;26;20226;-61
2024/04/19 11:20:46;;;;;;;2.03;1.20;;;31.30;13.60;;;;;;6859745;26;20233;-62
2024/04/19 11:24:23;;;;;;;1.50;1.23;;;30.00;14.30;;;;;;6859204;26;20297;-60
2024/04/19 11:27:30;;;;;;;1.93;1.00;;;28.70;15.00;;;;;;6855291;26;20241;-60
2024/04/19 11:30:43;;;;;;;2.53;0.97;;;26.80;16.00;;;;;;6858422;26;20233;-60
2024/04/19 11:33:58;;;;;;;1.03;0.77;;;25.90;16.70;;;;;;6836365;26;20689;-59
2024/04/19 11:37:09;;;;;;;0.93;0.77;;;24.10;18.20;;;;;;6812411;26;20668;-59
2024/04/19 11:40:31;;;;;;;1.60;1.20;;;22.60;18.70;;;;;;6855841;26;20238;-60
2024/04/19 11:43:44;;;;;;;1.33;1.20;;;21.80;20.10;;;;;;6853529;26;20236;-62
2024/04/19 11:46:51;;;;;;;3.93;1.33;;;21.70;20.20;;;;;;6823376;26;20343;-61
2024/04/19 11:50:00;;;;;;;1.27;0.83;;;21.80;20.50;;;;;;6859692;26;20225;-60
2024/04/19 11:53:22;;;;;;;1.03;0.87;;;21.40;20.10;;;;;;6860177;26;20314;-62
2024/04/19 11:56:39;;;;;;;1.00;0.90;;;20.60;21.10;;;;;;6836755;26;20692;-61
2024/04/19 11:59:50;;;;;;;0.90;0.80;;;20.20;20.60;;;;;;6859051;26;20745;-61
2024/04/19 12:02:57;;;;;;;0.80;0.80;;;19.20;22.20;;;;;;6830103;26;20528;-61
2024/04/19 12:06:06;;;;;;;3.03;0.70;;;19.20;22.60;;;;;;6818669;26;20273;-61
2024/04/19 12:09:13;;;;;;;1.00;1.00;;;19.60;22.50;;;;;;6852128;26;20440;-60
2024/04/19 12:12:37;;;;;;;2.20;1.60;;;21.00;22.50;;;;;;6857500;26;20230;-61
2024/04/19 12:16:05;;;;;;;1.87;1.10;;;22.40;21.50;;;;;;6857520;26;20238;-60
2024/04/19 12:19:34;;;;;;;1.23;1.10;;;19.50;22.30;;;;;;6852593;26;20225;-62
2024/04/19 12:22:44;;;;;;;1.00;0.80;;;18.60;23.20;;;;;;6837486;26;20230;-59
2024/04/19 12:26:14;;;;;;;0.97;0.87;;;18.60;23.70;;;;;;6853640;26;20298;-61
2024/04/19 12:29:45;;;;;;;2.73;0.83;;;18.80;23.10;;;;;;6848768;26;20707;-62
2024/04/19 12:33:00;;;;;;;2.33;0.90;;;19.70;23.10;;;;;;6852955;26;20282;-59
2024/04/19 12:36:10;;;;;;;0.93;0.63;;;19.70;21.90;;;;;;6846105;26;20281;-62
2024/04/19 12:39:20;;;;;;;0.90;0.70;;;18.40;22.50;;;;;;6804351;26;20274;-60
2024/04/19 12:42:27;;;;;;;1.47;1.03;;;16.60;24.90;;;;;;6811375;26;20226;-61
2024/04/19 12:45:35;;;;;;;1.00;0.83;;;16.30;25.20;;;;;;6817900;26;20245;-62
2024/04/19 12:48:48;;;;;;;2.40;1.57;;;16.10;25.70;;;;;;6812273;26;20755;-60
2024/04/19 12:51:58;;;;;;;0.60;0.60;;;15.80;25.90;;;;;;6802947;26;20507;-61
2024/04/19 12:55:13;;;;;;;0.60;0.60;;;15.50;26.10;;;;;;6795499;26;20522;-62
2024/04/19 12:58:25;;;;;;;0.87;0.73;;;15.90;25.60;;;;;;6853598;26;20529;-61
2024/04/19 13:01:40;;;;;;;1.47;0.70;;;16.00;26.00;;;;;;6843144;26;20484;-61
2024/04/19 13:04:47;;;;;;;0.80;0.80;;;16.30;25.80;;;;;;6834749;26;20554;-60
2024/04/19 13:07:55;;;;;;;2.43;1.10;;;15.70;25.70;;;;;;6894684;25;20540;-61
2024/04/19 13:11:02;;;;;;;0.83;0.67;;;15.40;26.40;;;;;;6888038;25;20449;-61
2024/04/19 13:14:21;;;;;;;1.73;1.10;;;15.60;25.70;;;;;;6839958;25;20582;-60
2024/04/19 13:17:40;;;;;;;0.87;0.77;;;15.30;25.80;;;;;;6804887;26;20504;-61
2024/04/19 13:20:51;;;;;;;1.47;1.20;;;14.80;26.40;;;;;;6804503;26;20871;-62
2024/04/19 13:24:06;;;;;;;0.87;0.70;;;14.50;26.40;;;;;;6807673;26;20464;-61
2024/04/19 13:27:15;;;;;;;2.10;0.90;;;15.10;26.30;;;;;;6806026;26;20463;-61
2024/04/19 13:30:59;;;;;;;1.10;0.80;;;15.00;26.10;;;;;;6870958;21;20571;-92
2024/04/19 13:34:05;;;;;;;1.20;0.97;;;15.60;25.60;;;;;;6820960;25;20456;-92
2024/04/19 13:37:12;;;;;;;1.00;0.90;;;16.00;26.00;;;;;;6816494;26;20524;-93
2024/04/19 13:40:23;;;;;;;1.07;0.80;;;16.10;24.30;;;;;;6768189;26;20517;-94
2024/04/19 13:43:30;;;;;;;0.77;0.73;;;16.00;24.00;;;;;;6771973;26;20490;-92
2024/04/19 13:49:06;;;;;;;0.70;0.67;;;15.70;24.10;;;;;;7038073;25;20383;-93
2024/04/19 13:52:12;;;;;;;0.90;0.90;;;14.70;25.30;;;;;;7045292;25;20517;-95
2024/04/19 13:55:21;;;;;;;0.97;0.87;;;14.20;26.40;;;;;;7049002;25;20477;-92
2024/04/19 13:58:29;;;;;;;1.00;0.90;;;13.60;27.50;;;;;;7007412;25;20500;-91
2024/04/19 14:01:35;;;;;;;0.77;0.77;;;13.40;27.80;;;;;;7006735;25;20489;-93
2024/04/19 14:04:47;;;;;;;1.00;0.83;;;13.80;28.00;;;;;;7008034;25;20504;-92
2024/04/19 14:07:56;;;;;;;1.00;1.00;;;14.20;26.90;;;;;;7008797;25;20478;-92
2024/04/19 14:11:02;;;;;;;1.57;0.80;;;13.70;26.60;;;;;;7008636;25;20532;-92
2024/04/19 14:14:07;;;;;;;0.90;0.70;;;13.40;27.50;;;;;;7003313;25;20569;-93
2024/04/19 14:17:13;;;;;;;1.10;1.00;;;13.50;27.70;;;;;;6977552;25;20507;-94
2024/04/19 14:20:26;;;;;;;0.90;0.90;;;13.40;27.60;;;;;;6927805;25;20513;-93
2024/04/19 14:23:31;;;;;;;0.70;0.70;;;13.10;27.00;;;;;;6904362;25;20465;-95
2024/04/19 14:26:37;;;;;;;12.43;1.37;;;13.40;27.40;;;;;;6952304;25;20460;-94
2024/04/19 14:29:44;;;;;;;0.73;0.73;;;13.60;28.10;;;;;;6958790;25;20489;-94
2024/04/19 14:32:51;;;;;;;2.10;0.80;;;13.70;27.70;;;;;;6946099;25;20487;-93
2024/04/19 14:36:02;;;;;;;1.00;0.90;;;14.00;27.70;;;;;;6943787;25;20561;-93
2024/04/19 14:39:12;;;;;;;0.80;0.80;;;13.70;26.90;;;;;;6947688;25;20725;-93
2024/04/19 14:42:19;;;;;;;1.10;0.80;;;14.00;26.80;;;;;;6959776;25;20500;-93
2024/04/19 14:45:26;;;;;;;1.07;0.80;;;14.30;25.60;;;;;;6958309;25;20472;-93
2024/04/19 14:48:33;;;;;;;0.60;0.50;;;14.40;25.40;;;;;;6943693;25;20468;-94
2024/04/19 14:51:41;;;;;;;0.90;0.90;;;14.60;25.60;;;;;;6951951;25;20487;-92
2024/04/19 14:54:49;;;;;;;0.83;0.77;;;14.70;25.60;;;;;;6934205;25;20506;-93
2024/04/19 14:57:57;;;;;;;0.60;0.60;;;14.40;25.90;;;;;;6920913;25;20462;-93
2024/04/19 15:01:03;;;;;;;0.80;0.70;;;14.00;26.30;;;;;;6929620;25;20506;-92
2024/04/19 15:04:09;;;;;;;0.80;0.70;;;14.30;26.40;;;;;;6898346;25;20556;-92
2024/04/19 15:07:20;;;;;;;0.77;0.77;;;14.70;26.30;;;;;;6892716;25;20519;-92
2024/04/19 15:10:26;;;;;;;0.67;0.60;;;14.20;26.00;;;;;;6891231;25;20498;-92
2024/04/19 15:13:32;;;;;;;1.93;1.00;;;13.50;26.40;;;;;;6892454;25;20443;-92
2024/04/19 15:16:41;;;;;;;1.50;1.10;;;13.30;26.50;;;;;;6892109;25;20458;-94
2024/04/19 15:19:47;;;;;;;0.87;0.73;;;13.30;26.90;;;;;;6890694;25;20571;-94
2024/04/19 15:22:57;;;;;;;1.30;1.20;;;13.20;26.80;;;;;;6889947;25;20501;-94
2024/04/19 15:26:06;;;;;;;2.67;0.83;;;13.20;27.40;;;;;;6891198;25;20470;-94
2024/04/19 15:29:11;;;;;;;0.80;0.60;;;13.50;26.90;;;;;;6909806;25;20460;-94
2024/04/19 15:32:17;;;;;;;1.00;0.87;;;13.60;27.00;;;;;;6931473;25;20509;-95
2024/04/19 15:35:27;;;;;;;0.97;0.77;;;13.80;27.00;;;;;;6918315;20;20494;-58
2024/04/19 15:38:41;;;;;;;1.97;1.70;;;14.10;27.10;;;;;;6853989;25;20542;-59
2024/04/19 15:41:49;;;;;;;1.97;1.53;;;13.90;26.60;;;;;;6892694;25;20461;-59
2024/04/19 15:45:08;;;;;;;1.10;1.00;;;13.70;26.90;;;;;;6890219;25;20533;-58
2024/04/19 15:48:17;;;;;;;1.23;1.13;;;13.40;26.90;;;;;;6874432;25;20466;-58
2024/04/19 15:51:24;;;;;;;1.20;0.67;;;13.50;27.20;;;;;;6882967;25;20484;-58
2024/04/19 15:54:50;;;;;;;1.67;1.20;;;13.60;26.80;;;;;;6877113;25;20481;-58
2024/04/19 15:57:58;;;;;;;0.93;0.93;;;13.40;27.20;;;;;;6877783;25;20544;-59
2024/04/19 16:01:10;;;;;;;1.90;0.90;;;13.50;26.90;;;;;;6895809;25;20477;-60
2024/04/19 16:04:17;;;;;;;0.87;0.70;;;13.60;26.90;;;;;;6848641;26;20459;-59
2024/04/19 16:07:29;;;;;;;0.90;0.80;;;13.60;27.10;;;;;;6848650;25;20470;-57
2024/04/19 16:10:41;;;;;;;0.80;0.80;;;13.20;27.40;;;;;;6885175;25;20536;-59
2024/04/19 16:13:56;;;;;;;1.00;0.80;;;12.80;28.10;;;;;;6886310;25;20465;-59
2024/04/19 16:17:05;;;;;;;1.70;0.90;;;12.70;27.90;;;;;;6849036;25;20576;-60
2024/04/19 16:20:17;;;;;;;2.87;0.77;;;12.50;28.40;;;;;;6880448;25;20812;-59
2024/04/19 16:23:23;;;;;;;0.70;0.60;;;12.50;28.40;;;;;;6893690;25;20462;-59
2024/04/19 16:26:34;;;;;;;1.33;0.70;;;12.60;28.50;;;;;;6882297;25;20584;-59
2024/04/19 16:29:43;;;;;;;0.93;0.83;;;12.70;28.70;;;;;;6880215;25;20570;-59
2024/04/19 16:32:55;;;;;;;2.83;2.23;;;12.90;29.00;;;;;;6861866;25;20522;-58
2024/04/19 16:36:13;;;;;;;1.40;1.30;;;12.90;28.70;;;;;;6843038;25;20534;-59
2024/04/19 16:39:27;;;;;;;0.90;0.90;;;13.00;28.80;;;;;;6888296;25;21068;-58
2024/04/19 16:42:43;;;;;;;1.43;1.13;;;13.20;28.90;;;;;;6894755;25;20488;-59
2024/04/19 16:45:52;;;;;;;1.10;1.00;;;13.10;28.60;;;;;;6894840;25;20513;-58
2024/04/19 16:48:59;;;;;;;0.70;0.70;;;12.90;28.90;;;;;;6892657;25;20526;-57
2024/04/19 16:52:10;;;;;;;1.53;1.00;;;13.00;28.50;;;;;;6893636;25;20480;-59
2024/04/19 16:55:19;;;;;;;1.27;1.07;;;12.90;28.70;;;;;;6894579;25;20581;-58
2024/04/19 16:58:30;;;;;;;3.10;1.43;;;12.90;29.20;;;;;;6894391;25;20516;-59
2024/04/19 17:01:37;;;;;;;0.80;0.80;;;12.70;28.60;;;;;;6892816;25;20450;-58
2024/04/19 17:04:46;;;;;;;1.27;1.10;;;12.60;28.40;;;;;;6892349;25;20544;-59